Miranda, Brazil
Current Conditions -  °F | °C
As of 7:00 AM on Saturday 22 Nov 2014 (Local Time) from SBCG Reporting Station
Light Rain Light Rain  
Wind Chill: 72°   Ceiling: 1300
Heat Index: 72°   Visibility: 6mi
Dew Point: 70°   Wind: 13mph
Humidity: 94%   Direction: 330°NNW
Pressure: NA   Gusts: NA
Location:  20.24°S, 56.38°W
Report Text: SBCG 221000Z 33011KT 9000 -RA BKN013 FEW040TCU BKN100 22/21 Q1013
Loading
Personal Weather Stations






























Interactive Weather Map New forecast layout! Learn more

10-Day Weather Forecast

Advertisements
Track Severe Weather on mobile